Rich Hill, Missouri
Current Conditions -  °F | °C
As of 12:35 PM on Thursday 29 Jan 2015 (Local Time) from KGLY Reporting Station
Overcast Overcast  
Wind Chill: 35°   Ceiling: 3000
Heat Index: 43°   Visibility: 10mi
Dew Point: 30°   Wind: 16mph
Humidity: 61%   Direction: 320°NW
Pressure: 30.33"   Gusts: NA
Location:  38.1°N, 94.36°W
Report Text: KGLY 291835Z AUTO 32014KT 10SM OVC030 06/M01 A3033 RMK AO2
Loading
Personal Weather Stations






























Interactive Weather Map New forecast layout! Learn more

10-Day Weather Forecast

Advertisements
Track Severe Weather on mobile